createdAt,value
2023-03-15T00:00:48.865Z,4.69
2023-03-15T00:03:37.300Z,4.60
2023-03-15T00:06:22.836Z,4.56
2023-03-15T00:09:08.331Z,4.49
2023-03-15T00:11:56.288Z,4.39
2023-03-15T00:14:41.396Z,4.38
2023-03-15T00:17:26.348Z,4.36
2023-03-15T00:20:14.755Z,4.31
2023-03-15T00:22:59.905Z,4.30
2023-03-15T00:25:46.028Z,4.28
2023-03-15T00:28:31.219Z,4.23
2023-03-15T00:31:19.609Z,4.16
2023-03-15T00:34:04.792Z,4.19
2023-03-15T00:36:49.860Z,4.14
2023-03-15T00:39:37.857Z,4.10
2023-03-15T00:42:27.639Z,4.09
2023-03-15T00:45:12.760Z,4.05
2023-03-15T00:47:57.819Z,4.06
2023-03-15T00:50:43.096Z,3.96
2023-03-15T00:53:28.065Z,3.94
2023-03-15T00:56:19.813Z,3.95
2023-03-15T00:59:04.758Z,3.86
2023-03-15T01:01:50.034Z,3.88
2023-03-15T01:04:35.378Z,3.83
2023-03-15T01:07:21.423Z,3.80
2023-03-15T01:10:07.184Z,3.75
2023-03-15T01:12:52.182Z,3.72
2023-03-15T01:15:37.255Z,3.56
2023-03-15T01:18:22.516Z,3.67
2023-03-15T01:21:09.129Z,3.60
2023-03-15T01:23:55.092Z,3.57
2023-03-15T01:26:40.990Z,3.50
2023-03-15T01:29:26.349Z,3.42
2023-03-15T01:32:11.718Z,3.36
2023-03-15T01:34:57.240Z,3.40
2023-03-15T01:37:42.576Z,3.38
2023-03-15T01:40:27.884Z,3.26
2023-03-15T01:43:20.805Z,3.28
2023-03-15T01:46:34.714Z,3.20
2023-03-15T01:49:31.835Z,3.16
2023-03-15T01:52:25.436Z,3.05
2023-03-15T01:55:15.108Z,3.01
2023-03-15T01:58:01.123Z,3.01
2023-03-15T02:00:46.768Z,3.01
2023-03-15T02:03:46.765Z,2.91
2023-03-15T02:06:34.942Z,2.92
2023-03-15T02:09:22.150Z,2.85
2023-03-15T02:12:08.988Z,2.85
2023-03-15T02:14:54.755Z,2.83
2023-03-15T02:17:45.903Z,2.82
2023-03-15T02:21:15.842Z,2.81
2023-03-15T02:24:34.743Z,2.76
2023-03-15T02:27:27.096Z,2.62
2023-03-15T02:30:12.726Z,2.69
2023-03-15T02:33:00.075Z,2.77
2023-03-15T02:35:45.588Z,2.77
2023-03-15T02:38:30.938Z,2.73
2023-03-15T02:41:26.547Z,2.73
2023-03-15T02:44:16.253Z,2.69
2023-03-15T02:47:13.971Z,2.68
2023-03-15T02:49:59.236Z,2.59
2023-03-15T02:52:44.585Z,2.61
2023-03-15T02:55:32.734Z,2.60
2023-03-15T02:58:17.816Z,2.58
2023-03-15T03:01:03.191Z,2.44
2023-03-15T03:03:48.588Z,2.54
2023-03-15T03:06:33.872Z,2.48
2023-03-15T03:09:19.094Z,2.52
2023-03-15T03:12:04.482Z,2.58
2023-03-15T03:14:49.659Z,2.48
2023-03-15T03:17:37.471Z,2.40
2023-03-15T03:20:22.519Z,2.33
2023-03-15T03:23:07.710Z,2.27
2023-03-15T03:25:57.365Z,2.23
2023-03-15T03:28:44.842Z,2.23
2023-03-15T03:31:29.857Z,2.17
2023-03-15T03:34:15.734Z,2.08
2023-03-15T03:37:01.091Z,2.09
2023-03-15T03:39:46.310Z,2.02
2023-03-15T03:42:31.522Z,1.92
2023-03-15T03:45:16.809Z,1.90
2023-03-15T03:48:01.915Z,1.84
2023-03-15T03:50:47.211Z,1.78
2023-03-15T03:53:32.158Z,1.73
2023-03-15T03:56:17.214Z,1.73
2023-03-15T03:59:02.287Z,1.64
2023-03-15T04:01:48.309Z,1.70
2023-03-15T04:04:33.461Z,1.64
2023-03-15T04:07:18.637Z,1.68
2023-03-15T04:10:04.503Z,1.68
2023-03-15T04:12:49.505Z,1.67
2023-03-15T04:15:34.811Z,1.69
2023-03-15T04:18:19.714Z,1.66
2023-03-15T04:21:04.948Z,1.68
2023-03-15T04:23:50.141Z,1.64
2023-03-15T04:26:35.460Z,1.63
2023-03-15T04:29:21.547Z,1.61
2023-03-15T04:32:07.016Z,1.58
2023-03-15T04:34:52.044Z,1.46
2023-03-15T04:37:37.157Z,1.55
2023-03-15T04:40:24.168Z,1.56
2023-03-15T04:43:09.659Z,1.57
2023-03-15T04:45:54.521Z,1.56
2023-03-15T04:48:39.699Z,1.47
2023-03-15T04:51:24.887Z,1.60
2023-03-15T04:54:09.881Z,1.60
2023-03-15T04:56:54.972Z,1.61
2023-03-15T04:59:40.029Z,1.60
2023-03-15T05:02:25.085Z,1.61
2023-03-15T05:05:12.521Z,1.60
2023-03-15T05:07:57.791Z,1.62
2023-03-15T05:10:43.009Z,1.58
2023-03-15T05:13:28.439Z,1.28
2023-03-15T05:16:13.780Z,1.30
2023-03-15T05:18:59.248Z,1.24
2023-03-15T05:21:44.561Z,1.17
2023-03-15T05:24:30.365Z,1.13
2023-03-15T05:27:15.286Z,1.16
2023-03-15T05:30:04.167Z,1.20
2023-03-15T05:32:49.083Z,1.27
2023-03-15T05:35:34.104Z,1.31
2023-03-15T05:38:19.406Z,1.22
2023-03-15T05:41:04.828Z,1.16
2023-03-15T05:43:51.229Z,1.06
2023-03-15T05:46:36.131Z,0.88
2023-03-15T05:49:21.451Z,0.76
2023-03-15T05:52:06.722Z,0.73
2023-03-15T05:54:52.143Z,0.80
2023-03-15T05:57:37.527Z,0.81
2023-03-15T06:00:23.084Z,0.79
2023-03-15T06:03:08.184Z,0.77
2023-03-15T06:05:53.951Z,0.72
2023-03-15T06:08:39.269Z,0.66
2023-03-15T06:11:24.663Z,0.69
2023-03-15T06:14:09.869Z,0.66
2023-03-15T06:16:55.048Z,0.50
2023-03-15T06:19:40.120Z,0.52
2023-03-15T06:22:25.212Z,0.52
2023-03-15T06:25:10.639Z,0.48
2023-03-15T06:27:55.769Z,0.50
2023-03-15T06:30:41.689Z,0.50
2023-03-15T06:33:27.135Z,0.47
2023-03-15T06:36:12.914Z,0.46
2023-03-15T06:38:57.901Z,0.47
2023-03-15T06:41:43.219Z,0.48
2023-03-15T06:44:28.919Z,0.43
2023-03-15T06:47:14.097Z,0.47
2023-03-15T06:49:59.436Z,0.53
2023-03-15T06:52:44.463Z,0.56
2023-03-15T06:55:29.475Z,0.59
2023-03-15T06:58:14.741Z,0.65
2023-03-15T07:00:59.957Z,0.68
2023-03-15T07:03:45.222Z,0.70
2023-03-15T07:06:30.404Z,0.85
2023-03-15T07:09:15.545Z,0.92
2023-03-15T07:12:00.591Z,0.82
2023-03-15T07:14:46.657Z,1.01
2023-03-15T07:17:31.787Z,0.94
2023-03-15T07:20:17.382Z,1.01
2023-03-15T07:23:03.254Z,1.24
2023-03-15T07:25:55.085Z,1.35
2023-03-15T07:28:40.375Z,1.33
2023-03-15T07:31:25.349Z,1.36
2023-03-15T07:34:10.676Z,1.32
2023-03-15T07:36:56.183Z,1.41
2023-03-15T07:39:41.519Z,1.46
2023-03-15T07:42:26.811Z,1.56
2023-03-15T07:45:12.400Z,1.72
2023-03-15T07:47:57.541Z,1.93
2023-03-15T07:50:42.789Z,2.14
2023-03-15T07:53:28.317Z,2.23
2023-03-15T07:56:13.567Z,2.31
2023-03-15T07:59:00.893Z,2.39
2023-03-15T08:01:45.874Z,2.46
2023-03-15T08:04:31.672Z,2.67
2023-03-15T08:07:17.527Z,2.71
2023-03-15T08:10:06.311Z,2.83
2023-03-15T08:12:51.526Z,2.92
2023-03-15T08:15:37.149Z,3.13
2023-03-15T08:18:22.090Z,3.27
2023-03-15T08:21:07.373Z,3.39
2023-03-15T08:23:52.662Z,3.44
2023-03-15T08:26:37.958Z,3.48
2023-03-15T08:29:23.209Z,3.52
2023-03-15T08:32:08.854Z,3.58
2023-03-15T08:34:53.780Z,3.60
2023-03-15T08:37:40.196Z,3.77
2023-03-15T08:40:25.346Z,3.85
2023-03-15T08:43:10.908Z,3.97
2023-03-15T08:46:02.926Z,3.94
2023-03-15T08:48:48.307Z,3.98
2023-03-15T08:51:33.857Z,4.15
2023-03-15T08:54:18.936Z,4.30
2023-03-15T08:57:04.551Z,4.47
2023-03-15T08:59:50.148Z,4.56
2023-03-15T09:02:36.565Z,4.60
2023-03-15T09:05:25.022Z,4.75
2023-03-15T09:08:10.817Z,4.82
2023-03-15T09:10:57.387Z,4.84
2023-03-15T09:13:42.619Z,4.94
2023-03-15T09:16:27.714Z,5.03
2023-03-15T09:19:13.426Z,5.05
2023-03-15T09:22:10.787Z,5.06
2023-03-15T09:25:04.660Z,5.13
2023-03-15T09:27:50.227Z,5.25
2023-03-15T09:30:36.717Z,5.37
2023-03-15T09:33:22.520Z,5.50
2023-03-15T09:36:07.834Z,5.64
2023-03-15T09:38:52.865Z,5.78
2023-03-15T09:41:43.833Z,5.84
2023-03-15T09:44:44.566Z,5.94
2023-03-15T09:47:55.711Z,5.98
2023-03-15T09:51:06.109Z,6.07
2023-03-15T09:54:03.805Z,6.15
2023-03-15T09:57:14.717Z,6.26
2023-03-15T10:00:02.550Z,6.26
2023-03-15T10:03:00.731Z,6.36
2023-03-15T10:05:50.046Z,6.34
2023-03-15T10:08:35.380Z,6.35
2023-03-15T10:11:47.932Z,6.59
2023-03-15T10:14:46.960Z,6.65
2023-03-15T10:17:44.985Z,6.84
2023-03-15T10:20:34.683Z,6.87
2023-03-15T10:23:23.472Z,6.90
2023-03-15T10:26:14.727Z,6.86
2023-03-15T10:29:03.875Z,6.88
2023-03-15T10:31:51.930Z,6.95
2023-03-15T10:34:36.832Z,7.12
2023-03-15T10:37:23.728Z,7.20
2023-03-15T10:40:15.945Z,7.29
2023-03-15T10:43:01.108Z,7.44
2023-03-15T10:46:11.674Z,7.47
2023-03-15T10:49:09.575Z,7.55
2023-03-15T10:51:58.277Z,7.48
2023-03-15T10:54:44.943Z,7.60
2023-03-15T10:57:35.264Z,7.64
2023-03-15T11:00:32.455Z,7.59
2023-03-15T11:03:27.597Z,7.64
2023-03-15T11:06:22.650Z,7.66
2023-03-15T11:09:19.307Z,7.74
2023-03-15T11:12:06.835Z,7.82
2023-03-15T11:15:16.446Z,7.84
2023-03-15T11:18:01.476Z,7.83
2023-03-15T11:20:46.995Z,7.95
2023-03-15T11:23:36.764Z,7.97
2023-03-15T11:26:33.612Z,7.95
2023-03-15T11:29:26.786Z,8.02
2023-03-15T11:32:19.204Z,7.94
2023-03-15T11:35:15.921Z,8.11
2023-03-15T11:38:15.355Z,8.23
2023-03-15T11:41:05.132Z,8.25
2023-03-15T11:44:13.942Z,8.31
2023-03-15T11:47:05.367Z,8.39
2023-03-15T11:49:55.463Z,8.37
2023-03-15T11:52:41.355Z,8.47
2023-03-15T11:55:28.771Z,8.57
2023-03-15T11:58:44.556Z,8.68
2023-03-15T12:01:29.834Z,8.64
2023-03-15T12:04:33.231Z,8.80
2023-03-15T12:07:18.876Z,8.80
2023-03-15T12:10:04.340Z,8.83
2023-03-15T12:12:58.978Z,9.08
2023-03-15T12:15:47.395Z,9.14
2023-03-15T12:18:42.130Z,9.19
2023-03-15T12:21:44.266Z,9.01
2023-03-15T12:24:36.131Z,8.84
2023-03-15T12:27:21.690Z,8.97
2023-03-15T12:30:16.954Z,9.11
2023-03-15T12:33:03.316Z,9.20
2023-03-15T12:35:49.749Z,9.24
2023-03-15T12:38:43.338Z,9.20
2023-03-15T12:41:43.826Z,9.17
2023-03-15T12:44:32.017Z,9.16
2023-03-15T12:47:17.060Z,9.23
2023-03-15T12:50:42.309Z,9.31
2023-03-15T12:53:38.292Z,9.12
2023-03-15T12:56:34.185Z,9.17
2023-03-15T12:59:35.273Z,9.21
2023-03-15T13:02:41.797Z,9.26
2023-03-15T13:05:36.301Z,9.23
2023-03-15T13:08:30.146Z,9.30
2023-03-15T13:11:35.633Z,9.23
2023-03-15T13:14:49.063Z,9.12
2023-03-15T13:17:52.195Z,9.13
2023-03-15T13:20:42.414Z,9.22
2023-03-15T13:23:30.026Z,9.16
2023-03-15T13:26:34.038Z,9.20
2023-03-15T13:29:30.167Z,9.24
2023-03-15T13:32:17.729Z,9.13
2023-03-15T13:35:03.837Z,9.04
2023-03-15T13:37:48.958Z,8.99
2023-03-15T13:40:34.342Z,8.90
2023-03-15T13:43:19.975Z,8.91
2023-03-15T13:46:06.046Z,8.90
2023-03-15T13:48:53.518Z,8.88
2023-03-15T13:51:40.049Z,8.88
2023-03-15T13:54:33.613Z,8.80
2023-03-15T13:57:22.131Z,8.89
2023-03-15T14:00:17.601Z,8.96
2023-03-15T14:03:07.138Z,8.95
2023-03-15T14:05:55.351Z,8.94
2023-03-15T14:08:41.075Z,8.94
2023-03-15T14:11:26.398Z,8.95
2023-03-15T14:14:31.756Z,8.87
2023-03-15T14:17:28.735Z,8.86
2023-03-15T14:20:17.456Z,8.86
2023-03-15T14:23:06.424Z,8.86
2023-03-15T14:26:01.916Z,8.78
2023-03-15T14:28:54.117Z,8.68
2023-03-15T14:31:46.057Z,8.60
2023-03-15T14:34:43.674Z,8.68
2023-03-15T14:37:43.521Z,8.70
2023-03-15T14:40:34.964Z,8.70
2023-03-15T14:43:20.691Z,8.68
2023-03-15T14:46:07.321Z,8.66
2023-03-15T14:48:52.907Z,8.70
2023-03-15T14:51:38.160Z,8.69
2023-03-15T14:54:24.083Z,8.67
2023-03-15T14:57:09.495Z,8.57
2023-03-15T14:59:55.032Z,8.57
2023-03-15T15:02:40.960Z,8.60
2023-03-15T15:05:32.248Z,8.59
2023-03-15T15:08:22.415Z,8.49
2023-03-15T15:11:11.341Z,8.52
2023-03-15T15:13:57.836Z,8.52
2023-03-15T15:16:43.551Z,8.55
2023-03-15T15:19:28.642Z,8.52
2023-03-15T15:22:14.430Z,8.60
2023-03-15T15:24:59.440Z,8.59
2023-03-15T15:27:45.080Z,8.51
2023-03-15T15:30:31.347Z,8.57
2023-03-15T15:33:16.449Z,8.57
2023-03-15T15:36:02.332Z,8.67
2023-03-15T15:38:47.745Z,8.53
2023-03-15T15:41:33.086Z,8.56
2023-03-15T15:44:21.940Z,8.53
2023-03-15T15:47:07.088Z,8.42
2023-03-15T15:49:52.297Z,8.49
2023-03-15T15:52:40.979Z,8.51
2023-03-15T15:55:31.024Z,8.57
2023-03-15T15:58:17.500Z,8.59
2023-03-15T16:01:03.718Z,8.66
2023-03-15T16:03:49.413Z,8.53
2023-03-15T16:06:36.214Z,8.41
2023-03-15T16:09:22.993Z,8.38
2023-03-15T16:12:16.022Z,8.35
2023-03-15T16:15:01.346Z,8.44
2023-03-15T16:17:46.927Z,8.36
2023-03-15T16:20:32.082Z,8.33
2023-03-15T16:23:21.905Z,8.28
2023-03-15T16:26:07.178Z,8.20
2023-03-15T16:28:52.396Z,8.18
2023-03-15T16:31:37.283Z,8.16
2023-03-15T16:34:23.651Z,7.97
2023-03-15T16:37:18.006Z,8.05
2023-03-15T16:40:09.932Z,8.02
2023-03-15T16:42:56.060Z,7.99
2023-03-15T16:45:41.417Z,8.01
2023-03-15T16:48:26.736Z,8.04
2023-03-15T16:51:14.582Z,8.04
2023-03-15T16:54:14.929Z,8.03
2023-03-15T16:57:03.242Z,7.97
2023-03-15T16:59:48.556Z,7.94
2023-03-15T17:02:33.930Z,7.96
2023-03-15T17:05:20.757Z,7.87
2023-03-15T17:08:06.083Z,7.87
2023-03-15T17:10:51.411Z,7.80
2023-03-15T17:13:40.784Z,7.83
2023-03-15T17:16:26.421Z,7.79
2023-03-15T17:19:13.396Z,7.67
2023-03-15T17:21:59.052Z,7.75
2023-03-15T17:24:44.512Z,7.75
2023-03-15T17:27:50.687Z,7.76
2023-03-15T17:30:37.148Z,7.70
2023-03-15T17:33:25.940Z,7.64
2023-03-15T17:36:16.571Z,7.66
2023-03-15T17:39:02.778Z,7.67
2023-03-15T17:41:48.355Z,7.55
2023-03-15T17:44:33.796Z,7.62
2023-03-15T17:47:19.147Z,7.62
2023-03-15T17:50:04.780Z,7.62
2023-03-15T17:52:55.237Z,7.61
2023-03-15T17:55:40.750Z,7.64
2023-03-15T17:58:27.363Z,7.63
2023-03-15T18:01:19.681Z,7.63
2023-03-15T18:04:09.595Z,7.54
2023-03-15T18:06:55.359Z,7.57
2023-03-15T18:09:40.795Z,7.47
2023-03-15T18:12:25.761Z,7.51
2023-03-15T18:15:14.119Z,7.57
2023-03-15T18:17:59.038Z,7.55
2023-03-15T18:20:45.342Z,7.55
2023-03-15T18:23:30.657Z,7.54
2023-03-15T18:26:17.337Z,7.54
2023-03-15T18:29:02.247Z,7.51
2023-03-15T18:31:47.488Z,7.50
2023-03-15T18:34:32.728Z,7.45
2023-03-15T18:37:17.922Z,7.45
2023-03-15T18:40:03.429Z,7.47
2023-03-15T18:42:48.353Z,7.46
2023-03-15T18:45:36.197Z,7.44
2023-03-15T18:48:34.145Z,7.36
2023-03-15T18:51:25.968Z,7.40
2023-03-15T18:54:11.019Z,7.36
2023-03-15T18:56:56.529Z,7.41
2023-03-15T18:59:41.927Z,7.39
2023-03-15T19:02:27.628Z,7.40
2023-03-15T19:05:14.300Z,7.38
2023-03-15T19:07:59.929Z,7.39
2023-03-15T19:10:46.888Z,7.39
2023-03-15T19:13:32.236Z,7.41
2023-03-15T19:16:19.020Z,7.40
2023-03-15T19:19:04.117Z,7.36
2023-03-15T19:21:49.352Z,7.39
2023-03-15T19:24:36.280Z,7.33
2023-03-15T19:27:21.467Z,7.36
2023-03-15T19:30:09.187Z,7.31
2023-03-15T19:32:55.381Z,7.29
2023-03-15T19:35:43.489Z,7.32
2023-03-15T19:38:29.514Z,7.31
2023-03-15T19:41:14.848Z,7.16
2023-03-15T19:44:00.111Z,7.31
2023-03-15T19:46:45.548Z,7.26
2023-03-15T19:49:30.894Z,7.24
2023-03-15T19:52:16.250Z,7.15
2023-03-15T19:55:01.869Z,7.20
2023-03-15T19:57:47.716Z,7.21
2023-03-15T20:00:32.964Z,7.23
2023-03-15T20:03:18.127Z,7.20
2023-03-15T20:06:08.800Z,7.19
2023-03-15T20:08:54.001Z,7.11
2023-03-15T20:11:39.163Z,7.14
2023-03-15T20:14:24.241Z,7.12
2023-03-15T20:17:09.430Z,7.03
2023-03-15T20:19:55.102Z,7.09
2023-03-15T20:22:42.964Z,7.10
2023-03-15T20:25:28.310Z,7.07
2023-03-15T20:28:13.495Z,7.09
2023-03-15T20:30:59.127Z,7.10
2023-03-15T20:33:47.682Z,7.11
2023-03-15T20:36:33.558Z,7.11
2023-03-15T20:39:19.371Z,7.07
2023-03-15T20:42:04.539Z,7.00
2023-03-15T20:44:50.452Z,7.07
2023-03-15T20:47:35.945Z,6.97
2023-03-15T20:50:21.249Z,6.97
2023-03-15T20:53:06.850Z,6.96
2023-03-15T20:55:52.483Z,7.01
2023-03-15T20:58:37.578Z,7.04
2023-03-15T21:01:22.632Z,7.06
2023-03-15T21:04:08.003Z,7.02
2023-03-15T21:06:53.155Z,6.98
2023-03-15T21:09:38.538Z,7.03
2023-03-15T21:12:23.892Z,6.99
2023-03-15T21:15:09.656Z,7.06
2023-03-15T21:17:54.962Z,7.04
2023-03-15T21:20:40.224Z,7.05
2023-03-15T21:23:33.020Z,7.02
2023-03-15T21:26:18.477Z,7.02
2023-03-15T21:29:04.914Z,7.04
2023-03-15T21:31:50.000Z,7.03
2023-03-15T21:34:35.404Z,7.01
2023-03-15T21:37:20.644Z,6.96
2023-03-15T21:40:06.925Z,7.01
2023-03-15T21:42:52.001Z,7.06
2023-03-15T21:45:37.565Z,7.06
2023-03-15T21:48:23.065Z,7.07
2023-03-15T21:51:08.848Z,7.05
2023-03-15T21:53:53.860Z,7.04
2023-03-15T21:56:39.761Z,7.04
2023-03-15T21:59:27.870Z,7.05
2023-03-15T22:02:14.249Z,7.07
2023-03-15T22:04:59.690Z,7.02
2023-03-15T22:07:44.761Z,7.00
2023-03-15T22:10:30.041Z,7.05
2023-03-15T22:13:15.234Z,7.04
2023-03-15T22:16:01.372Z,7.01
2023-03-15T22:18:46.635Z,6.93
2023-03-15T22:21:31.633Z,6.99
2023-03-15T22:24:16.988Z,7.00
2023-03-15T22:27:02.405Z,7.05
2023-03-15T22:29:47.529Z,7.05
2023-03-15T22:32:32.866Z,7.03
2023-03-15T22:35:18.344Z,7.01
2023-03-15T22:38:10.049Z,7.00
2023-03-15T22:41:03.609Z,7.01
2023-03-15T22:43:48.624Z,6.94
2023-03-15T22:46:35.269Z,6.99
2023-03-15T22:49:20.664Z,7.06
2023-03-15T22:52:06.252Z,7.03
2023-03-15T22:54:51.270Z,7.07
2023-03-15T22:57:36.389Z,7.09
2023-03-15T23:00:22.447Z,7.10
2023-03-15T23:03:08.071Z,7.11
2023-03-15T23:05:54.977Z,7.09
2023-03-15T23:08:39.842Z,7.04
2023-03-15T23:11:24.906Z,7.11
2023-03-15T23:14:10.241Z,7.12
2023-03-15T23:16:55.480Z,7.11
2023-03-15T23:19:41.542Z,7.07
2023-03-15T23:22:26.980Z,7.11
2023-03-15T23:25:13.756Z,7.13
2023-03-15T23:27:59.145Z,7.12
2023-03-15T23:30:45.691Z,7.11
2023-03-15T23:33:34.179Z,7.12
2023-03-15T23:36:19.349Z,7.11
2023-03-15T23:39:05.452Z,7.05
2023-03-15T23:41:51.421Z,7.11
2023-03-15T23:44:36.816Z,7.10
2023-03-15T23:47:23.900Z,7.10
2023-03-15T23:50:10.249Z,7.02
2023-03-15T23:52:56.268Z,7.12
2023-03-15T23:55:44.588Z,7.10
2023-03-15T23:58:29.933Z,7.09
